EWG14AM EDDB-HEGN
Flight info
| Callsign | EWG14AM |
|---|---|
| Flight time | N/A |
| Altitude | 31000 |
| Route | LUROS3Q LUROS M725 HDO DCT EVIKU/N0436F350 DCT ODNEM DCT XOMBA DCT KEROP DCT SOVIN DCT RAXAD DCT MAKED UL617 KEA UL607 NETIS/N0442F370 UL607 PAXIS L607 NABSI P557 OBRAN L321 REXUM M872 BOPOB BOPOB1A |
| Aircraft | A320/M-SDE3FGHIRWY/LB1 |
Departure
| Time | N/A |
|---|---|
| Airport | Berlin Brandenburg Airport (EDDB) |
Arrival
| Time | 2026-04-28 13:35 |
|---|---|
| Airport | Hurghada International Airport (HEGN) |
| Time | Latitude | Longitude | Altitude | Speed | Heading |
|---|---|---|---|---|---|
| 2026-04-28 12:50 | 30.16810 | 29.48611 | 37029 ft | 517 kts | 140° |
| 2026-04-28 12:50 | 30.14306 | 29.51596 | 37030 ft | 517 kts | 140° |
| 2026-04-28 12:51 | 30.09289 | 29.57560 | 36992 ft | 517 kts | 141° |
| 2026-04-28 12:51 | 30.04268 | 29.63506 | 37015 ft | 517 kts | 141° |
| 2026-04-28 12:52 | 29.99246 | 29.69463 | 37025 ft | 518 kts | 141° |
| 2026-04-28 12:52 | 29.94226 | 29.75413 | 37033 ft | 518 kts | 141° |
| 2026-04-28 12:53 | 29.89193 | 29.81356 | 37037 ft | 518 kts | 141° |
| 2026-04-28 12:53 | 29.84163 | 29.87289 | 37034 ft | 518 kts | 141° |
| 2026-04-28 12:54 | 29.79165 | 29.93188 | 37039 ft | 518 kts | 141° |
| 2026-04-28 12:54 | 29.74129 | 29.99103 | 37040 ft | 517 kts | 141° |
| 2026-04-28 12:55 | 29.69093 | 30.05016 | 37041 ft | 517 kts | 141° |
| 2026-04-28 12:55 | 29.64055 | 30.10930 | 37040 ft | 517 kts | 141° |
| 2026-04-28 12:56 | 29.59019 | 30.16828 | 37038 ft | 517 kts | 141° |
| 2026-04-28 12:56 | 29.53979 | 30.22722 | 37040 ft | 517 kts | 141° |
| 2026-04-28 12:57 | 29.48934 | 30.28608 | 37043 ft | 517 kts | 141° |
| 2026-04-28 12:57 | 29.43895 | 30.34486 | 37042 ft | 517 kts | 141° |
| 2026-04-28 12:58 | 29.38850 | 30.40364 | 37000 ft | 517 kts | 141° |
| 2026-04-28 12:58 | 29.33847 | 30.46291 | 37017 ft | 518 kts | 140° |
| 2026-04-28 12:59 | 29.28878 | 30.52274 | 37041 ft | 518 kts | 140° |
| 2026-04-28 12:59 | 29.23889 | 30.58243 | 37029 ft | 518 kts | 141° |
| 2026-04-28 13:00 | 29.18885 | 30.64184 | 37049 ft | 518 kts | 141° |
| 2026-04-28 13:00 | 29.13910 | 30.70087 | 37039 ft | 519 kts | 141° |
| 2026-04-28 13:01 | 29.08906 | 30.76019 | 37047 ft | 519 kts | 141° |
| 2026-04-28 13:01 | 29.03901 | 30.81957 | 37015 ft | 519 kts | 141° |
| 2026-04-28 13:02 | 28.98887 | 30.87887 | 37020 ft | 519 kts | 141° |
| 2026-04-28 13:02 | 28.93871 | 30.93805 | 37040 ft | 519 kts | 141° |
| 2026-04-28 13:03 | 28.88847 | 30.99724 | 37036 ft | 519 kts | 141° |
| 2026-04-28 13:03 | 28.83824 | 31.05640 | 37045 ft | 519 kts | 141° |
| 2026-04-28 13:04 | 28.78803 | 31.11546 | 37049 ft | 519 kts | 141° |
| 2026-04-28 13:04 | 28.73778 | 31.17449 | 37050 ft | 519 kts | 141° |
| 2026-04-28 13:05 | 28.68759 | 31.23347 | 37022 ft | 519 kts | 140° |
| 2026-04-28 13:05 | 28.63866 | 31.29426 | 37010 ft | 521 kts | 139° |
| 2026-04-28 13:06 | 28.59056 | 31.35609 | 37034 ft | 522 kts | 138° |
| 2026-04-28 13:06 | 28.54259 | 31.41741 | 37060 ft | 522 kts | 139° |
| 2026-04-28 13:07 | 28.49383 | 31.47841 | 37067 ft | 521 kts | 139° |
| 2026-04-28 13:07 | 28.44485 | 31.53926 | 37053 ft | 521 kts | 140° |
| 2026-04-28 13:08 | 28.39600 | 31.60018 | 37060 ft | 521 kts | 139° |
| 2026-04-28 13:08 | 28.34733 | 31.66123 | 37056 ft | 521 kts | 139° |
| 2026-04-28 13:09 | 28.29866 | 31.72222 | 37015 ft | 521 kts | 140° |
| 2026-04-28 13:09 | 28.24984 | 31.78308 | 37018 ft | 522 kts | 140° |
| 2026-04-28 13:10 | 28.20088 | 31.84383 | 37020 ft | 522 kts | 140° |
| 2026-04-28 13:10 | 28.15192 | 31.90462 | 37029 ft | 522 kts | 140° |
| 2026-04-28 13:11 | 28.10289 | 31.96542 | 37027 ft | 522 kts | 140° |
| 2026-04-28 13:11 | 28.06208 | 32.01584 | 37028 ft | 522 kts | 140° |
| 2026-04-28 13:12 | 27.97521 | 32.17247 | 37010 ft | 536 kts | 123° |
| 2026-04-28 13:13 | 27.93989 | 32.24606 | 36993 ft | 536 kts | 124° |
| 2026-04-28 13:13 | 27.90415 | 32.31996 | 36920 ft | 535 kts | 124° |
| 2026-04-28 13:14 | 27.86835 | 32.39369 | 36923 ft | 536 kts | 124° |
| 2026-04-28 13:14 | 27.83241 | 32.46785 | 36416 ft | 540 kts | 124° |
| 2026-04-28 13:14 | 27.81436 | 32.50499 | 35790 ft | 539 kts | 124° |
| 2026-04-28 13:15 | 27.79637 | 32.54199 | 35182 ft | 537 kts | 123° |
| 2026-04-28 13:15 | 27.77838 | 32.57898 | 34594 ft | 536 kts | 123° |
| 2026-04-28 13:15 | 27.76051 | 32.61577 | 34012 ft | 535 kts | 123° |
| 2026-04-28 13:15 | 27.74264 | 32.65257 | 33345 ft | 532 kts | 123° |
| 2026-04-28 13:16 | 27.72489 | 32.68910 | 32689 ft | 530 kts | 123° |
| 2026-04-28 13:16 | 27.70721 | 32.72548 | 32025 ft | 527 kts | 122° |
| 2026-04-28 13:16 | 27.68960 | 32.76155 | 31393 ft | 523 kts | 122° |
| 2026-04-28 13:16 | 27.67207 | 32.79732 | 30761 ft | 519 kts | 122° |
| 2026-04-28 13:17 | 27.65467 | 32.83282 | 30157 ft | 515 kts | 121° |
| 2026-04-28 13:17 | 27.64325 | 32.85613 | 29715 ft | 510 kts | 121° |
| 2026-04-28 13:17 | 27.62626 | 32.89083 | 28982 ft | 501 kts | 121° |
| 2026-04-28 13:17 | 27.60956 | 32.92486 | 28287 ft | 491 kts | 121° |
| 2026-04-28 13:18 | 27.59315 | 32.95830 | 27620 ft | 483 kts | 121° |
| 2026-04-28 13:18 | 27.57702 | 32.99111 | 26968 ft | 475 kts | 121° |
| 2026-04-28 13:18 | 27.56118 | 33.02335 | 26387 ft | 466 kts | 121° |
| 2026-04-28 13:18 | 27.54567 | 33.05496 | 25830 ft | 457 kts | 121° |
| 2026-04-28 13:19 | 27.53040 | 33.08598 | 25291 ft | 448 kts | 121° |
| 2026-04-28 13:19 | 27.51540 | 33.11642 | 24741 ft | 440 kts | 121° |
| 2026-04-28 13:19 | 27.50065 | 33.14633 | 24210 ft | 433 kts | 121° |
| 2026-04-28 13:19 | 27.48613 | 33.17574 | 23698 ft | 426 kts | 121° |
| 2026-04-28 13:20 | 27.47186 | 33.20464 | 23105 ft | 419 kts | 121° |
| 2026-04-28 13:20 | 27.45781 | 33.23313 | 22500 ft | 413 kts | 121° |
| 2026-04-28 13:20 | 27.44394 | 33.26124 | 21904 ft | 408 kts | 121° |
| 2026-04-28 13:20 | 27.43020 | 33.28902 | 21321 ft | 404 kts | 121° |
| 2026-04-28 13:21 | 27.41663 | 33.31647 | 20803 ft | 398 kts | 121° |
| 2026-04-28 13:21 | 27.40328 | 33.34352 | 20314 ft | 393 kts | 121° |
| 2026-04-28 13:21 | 27.39027 | 33.37024 | 19833 ft | 388 kts | 118° |
| 2026-04-28 13:21 | 27.38090 | 33.39811 | 19354 ft | 385 kts | 105° |
| 2026-04-28 13:22 | 27.37638 | 33.42768 | 18901 ft | 384 kts | 98° |
| 2026-04-28 13:22 | 27.37281 | 33.45746 | 18461 ft | 383 kts | 98° |
| 2026-04-28 13:22 | 27.36929 | 33.48712 | 17973 ft | 382 kts | 98° |
| 2026-04-28 13:22 | 27.36578 | 33.51663 | 17453 ft | 378 kts | 98° |
| 2026-04-28 13:23 | 27.36210 | 33.54567 | 16936 ft | 371 kts | 102° |
| 2026-04-28 13:23 | 27.35383 | 33.57264 | 16435 ft | 363 kts | 120° |
| 2026-04-28 13:23 | 27.33904 | 33.59512 | 15940 ft | 354 kts | 138° |
| 2026-04-28 13:23 | 27.31955 | 33.61133 | 15458 ft | 347 kts | 156° |
| 2026-04-28 13:24 | 27.29704 | 33.62057 | 14971 ft | 345 kts | 168° |
| 2026-04-28 13:24 | 27.27381 | 33.62741 | 14541 ft | 345 kts | 168° |
| 2026-04-28 13:24 | 27.25054 | 33.63426 | 14078 ft | 346 kts | 168° |
| 2026-04-28 13:24 | 27.22721 | 33.64118 | 13595 ft | 347 kts | 168° |
| 2026-04-28 13:25 | 27.20381 | 33.64810 | 13090 ft | 348 kts | 168° |
| 2026-04-28 13:25 | 27.18042 | 33.65507 | 12570 ft | 344 kts | 168° |
| 2026-04-28 13:25 | 27.15775 | 33.66184 | 12119 ft | 331 kts | 167° |
| 2026-04-28 13:25 | 27.13590 | 33.66830 | 11710 ft | 319 kts | 167° |
| 2026-04-28 13:26 | 27.11487 | 33.67455 | 11321 ft | 307 kts | 167° |
| 2026-04-28 13:26 | 27.09456 | 33.68059 | 10940 ft | 297 kts | 167° |
| 2026-04-28 13:26 | 27.07490 | 33.68640 | 10561 ft | 288 kts | 167° |
| 2026-04-28 13:26 | 27.05579 | 33.69203 | 10179 ft | 280 kts | 167° |
| 2026-04-28 13:27 | 27.03721 | 33.69753 | 9801 ft | 272 kts | 167° |
| 2026-04-28 13:27 | 27.01913 | 33.70288 | 9393 ft | 266 kts | 167° |
| 2026-04-28 13:27 | 27.00147 | 33.70813 | 8979 ft | 259 kts | 167° |
| 2026-04-28 13:27 | 26.98425 | 33.71325 | 8573 ft | 253 kts | 167° |
| 2026-04-28 13:28 | 26.96749 | 33.71820 | 8243 ft | 246 kts | 167° |
| 2026-04-28 13:28 | 26.95116 | 33.72345 | 7984 ft | 242 kts | 158° |
| 2026-04-28 13:28 | 26.93771 | 33.73423 | 7687 ft | 238 kts | 130° |
| 2026-04-28 13:28 | 26.93025 | 33.75046 | 7395 ft | 234 kts | 102° |
| 2026-04-28 13:29 | 26.92982 | 33.76832 | 7103 ft | 228 kts | 75° |
| 2026-04-28 13:29 | 26.93595 | 33.78429 | 6821 ft | 221 kts | 52° |
| 2026-04-28 13:29 | 26.94481 | 33.79829 | 6508 ft | 220 kts | 52° |
| 2026-04-28 13:29 | 26.95362 | 33.81236 | 6194 ft | 220 kts | 52° |
| 2026-04-28 13:30 | 26.96232 | 33.82639 | 5864 ft | 218 kts | 52° |
| 2026-04-28 13:30 | 26.97174 | 33.83930 | 5543 ft | 208 kts | 34° |
| 2026-04-28 13:30 | 26.98400 | 33.84565 | 5226 ft | 185 kts | 6° |
| 2026-04-28 13:30 | 26.99620 | 33.84492 | 4932 ft | 170 kts | 341° |
| 2026-04-28 13:31 | 27.01787 | 33.83850 | 4265 ft | 152 kts | 339° |
| 2026-04-28 13:31 | 27.02800 | 33.83551 | 3819 ft | 150 kts | 340° |
| 2026-04-28 13:31 | 27.03799 | 33.83255 | 3380 ft | 148 kts | 341° |
| 2026-04-28 13:32 | 27.04790 | 33.82961 | 2931 ft | 146 kts | 342° |
| 2026-04-28 13:32 | 27.05769 | 33.82669 | 2484 ft | 146 kts | 345° |
| 2026-04-28 13:32 | 27.06746 | 33.82379 | 2048 ft | 144 kts | 346° |
| 2026-04-28 13:32 | 27.07682 | 33.82105 | 1839 ft | 136 kts | 347° |
| 2026-04-28 13:33 | 27.08584 | 33.81862 | 1627 ft | 132 kts | 348° |
| 2026-04-28 13:33 | 27.09463 | 33.81617 | 1438 ft | 133 kts | 344° |
| 2026-04-28 13:33 | 27.10373 | 33.81346 | 1250 ft | 133 kts | 344° |
| 2026-04-28 13:33 | 27.11243 | 33.81065 | 1106 ft | 131 kts | 347° |
| 2026-04-28 13:34 | 27.12142 | 33.80813 | 928 ft | 133 kts | 345° |
| 2026-04-28 13:34 | 27.13028 | 33.80548 | 743 ft | 131 kts | 345° |
| 2026-04-28 13:34 | 27.13900 | 33.80280 | 592 ft | 129 kts | 346° |
| 2026-04-28 13:34 | 27.14777 | 33.80026 | 412 ft | 129 kts | 345° |
| 2026-04-28 13:35 | 27.15650 | 33.79761 | 228 ft | 130 kts | 348° |
| 2026-04-28 13:35 | 27.16506 | 33.79506 | 115 ft | 119 kts | 348° |
| 2026-04-28 13:35 | 27.17076 | 33.79338 | 108 ft | 38 kts | 345° |
| 2026-04-28 13:35 | 27.17313 | 33.79267 | 103 ft | 36 kts | 345° |
| 2026-04-28 13:36 | 27.17549 | 33.79199 | 98 ft | 34 kts | 345° |
| 2026-04-28 13:36 | 27.17772 | 33.79152 | 98 ft | 31 kts | 2° |
| 2026-04-28 13:36 | 27.17935 | 33.79188 | 98 ft | 19 kts | 13° |
| 2026-04-28 13:36 | 27.17925 | 33.79284 | 96 ft | 18 kts | 162° |
| 2026-04-28 13:37 | 27.17806 | 33.79319 | 95 ft | 17 kts | 165° |
| 2026-04-28 13:37 | 27.17688 | 33.79357 | 99 ft | 20 kts | 163° |
| 2026-04-28 13:37 | 27.17562 | 33.79395 | 99 ft | 18 kts | 165° |
| 2026-04-28 13:37 | 27.17445 | 33.79427 | 101 ft | 16 kts | 164° |
| 2026-04-28 13:38 | 27.17345 | 33.79458 | 101 ft | 13 kts | 165° |
| 2026-04-28 13:38 | 27.17264 | 33.79481 | 102 ft | 11 kts | 163° |
| 2026-04-28 13:38 | 27.17248 | 33.79583 | 98 ft | 21 kts | 74° |
| 2026-04-28 13:38 | 27.17295 | 33.79776 | 72 ft | 29 kts | 76° |
| 2026-04-28 13:39 | 27.17345 | 33.79987 | 50 ft | 25 kts | 75° |
| 2026-04-28 13:39 | 27.17391 | 33.80184 | 50 ft | 27 kts | 76° |
| 2026-04-28 13:39 | 27.17439 | 33.80383 | 51 ft | 21 kts | 75° |
| 2026-04-28 13:39 | 27.17467 | 33.80497 | 56 ft | 13 kts | 75° |
| 2026-04-28 13:40 | 27.17496 | 33.80603 | 52 ft | 15 kts | 60° |
| 2026-04-28 13:40 | 27.17588 | 33.80602 | 55 ft | 12 kts | 345° |
| 2026-04-28 13:40 | 27.17663 | 33.80579 | 52 ft | 7 kts | 345° |
| 2026-04-28 13:40 | 27.17702 | 33.80580 | 56 ft | 5 kts | 46° |
| 2026-04-28 13:41 | 27.17701 | 33.80622 | 55 ft | 5 kts | 108° |
| 2026-04-28 13:41 | 27.17705 | 33.80653 | 53 ft | 3 kts | 78° |
| 2026-04-28 13:41 | 27.17710 | 33.80672 | 53 ft | 2 kts | 75° |
| 2026-04-28 13:41 | 27.17710 | 33.80674 | 53 ft | 0 kts | 75° |